Have a Safe July 4th! 

Flight Track Log - Related Links

Times and Time Zones

All times are in EDT time to prevent confusion due to time zone crossing. See the ASQ4504 flight status page for this flight to view local times or setup timezone preferences in your user account.

Time Position Orientation Groundspeed Altitude Reporting Facility
EDT Latitude Longitude Course Direction KTS MPH feet Rate Location/Type
Thu 11:13:29 PM 29.9575 -95.3442 334° Northwest 170 196 700  Level Houston Center
Thu 11:14:11 PM 29.9322 -95.3664 217° Southwest 195 224 2,100 1,545 Climbing Houston Center
Thu 11:15:10 PM 29.9681 -95.3925 328° Northwest 225 259 3,300 1,412 Climbing Houston Center
Thu 11:16:00 PM 30.2583 -95.4927 332° Northwest  Level FlightAware Approximate
Thu 11:16:10 PM 30.0308 -95.4144 343° North 235 270 4,900  Level Houston Center
Thu 11:17:00 PM 30.3486 -95.5491 332° Northwest  Level FlightAware Approximate
Thu 11:17:11 PM 30.0956 -95.4461 337° Northwest 249 287 5,400  Level Houston Center
Thu 11:18:00 PM 30.4411 -95.6006 334° Northwest  Level FlightAware Approximate
Thu 11:18:12 PM 30.1750 -95.4839 338° Northwest 257 296 8,400  Level Houston Center
Thu 11:19:13 PM 30.2431 -95.5153 338° Northwest 263 303 10,400 1,737 Climbing Houston Center
Thu 11:19:28 PM 30.2594 -95.5228 338° Northwest 265 305 10,600 689 Climbing Houston Center
Thu 11:20:14 PM 30.3219 -95.5528 337° Northwest 306 352 11,100 1,009 Climbing Houston Center
Thu 11:21:15 PM 30.4094 -95.5936 338° Northwest 339 390 12,400 1,426 Climbing Houston Center
Thu 11:22:16 PM 30.4967 -95.6339 338° Northwest 338 389 14,000 1,377 Climbing Houston Center
Thu 11:23:17 PM 30.5847 -95.6775 337° Northwest 342 394 15,200 1,131 Climbing Houston Center
Thu 11:24:18 PM 30.6736 -95.7258 335° Northwest 350 403 16,300 1,033 Climbing Houston Center
Thu 11:25:19 PM 30.7622 -95.7589 342° North 360 414 17,300 942 Climbing Houston Center
Thu 11:26:19 PM 30.8711 -95.7600 359° North 381 438 18,200 942 Climbing Houston Center
Thu 11:27:20 PM 31.0019 -95.7600 360° North 390 449 19,200 1,033 Climbing Houston Center
Thu 11:28:21 PM 31.1150 -95.7611 360° North 399 459 20,300 1,082 Climbing Houston Center
Thu 11:29:22 PM 31.2297 -95.7619 360° North 407 468 21,400 1,082 Climbing Houston Center
Thu 11:30:23 PM 31.3442 -95.7619 360° North 409 471 22,500 1,180 Climbing Houston Center
Thu 11:31:24 PM 31.4583 -95.7625 360° North 408 470 23,800 1,279 Climbing Houston Center
Thu 11:32:25 PM 31.5708 -95.7633 360° North 403 464 25,100 1,230 Climbing Houston Center
Thu 11:33:26 PM 31.6836 -95.7628 360° North 402 463 26,300 1,190 Climbing Houston Center
Thu 11:34:26 PM 31.7967 -95.7631 360° North 403 464 27,500 1,200 Climbing Houston Center
Thu 11:35:31 PM 31.9083 -95.7689 357° North 398 458 28,800 1,286 Climbing Fort Worth Center
Thu 11:36:32 PM 32.0336 -95.7667 North 398 458 30,200 1,289 Climbing Fort Worth Center
Thu 11:37:32 PM 32.1419 -95.7669 360° North 393 452 31,400 1,400 Climbing Fort Worth Center
Thu 11:38:32 PM 32.2547 -95.7650 North 403 464 33,000 1,613 Climbing Fort Worth Center
Thu 11:39:31 PM 32.3592 -95.7681 359° North 386 444 34,600 1,000 Climbing Fort Worth Center
Thu 11:40:32 PM 32.4697 -95.7661 North 381 438 35,000 198 Climbing Fort Worth Center
Thu 11:41:32 PM 32.5742 -95.7667 360° North 392 451 35,000  Level Fort Worth Center
Thu 11:42:31 PM 32.6953 -95.7694 359° North 417 480 35,000  Level Fort Worth Center
Thu 11:43:32 PM 32.8228 -95.7694 360° North 441 507 35,000  Level Fort Worth Center
Thu 11:44:31 PM 32.9500 -95.7697 360° North 455 524 35,000  Level Fort Worth Center
Thu 11:45:32 PM 33.0731 -95.7697 360° North 450 518 35,000  Level Fort Worth Center
Thu 11:46:32 PM 33.2006 -95.7725 359° North 450 518 35,000  Level Fort Worth Center
Thu 11:47:31 PM 33.3217 -95.7703 North 444 511 35,000  Level Fort Worth Center
Thu 11:48:32 PM 33.4489 -95.7728 359° North 444 511 35,000  Level Fort Worth Center
Thu 11:49:32 PM 33.5847 -95.7753 359° North 439 505 35,000  Level Fort Worth Center
Thu 11:50:32 PM 33.7056 -95.7731 North 439 505 35,000  Level Fort Worth Center
Thu 11:51:31 PM 33.8308 -95.7758 359° North 439 505 35,000  Level Fort Worth Center
Thu 11:52:31 PM 33.9561 -95.7758 360° North 439 505 35,000  Level Fort Worth Center
Thu 11:53:32 PM 34.0814 -95.7811 358° North 439 505 35,000  Level Fort Worth Center
Thu 11:54:31 PM 34.2025 -95.7814 360° North 439 505 35,000  Level Fort Worth Center
Thu 11:55:31 PM 34.3317 -95.7814 360° North 445 512 35,000  Level Fort Worth Center
Thu 11:56:31 PM 34.4569 -95.7789 North 445 512 35,000  Level Fort Worth Center
Thu 11:57:31 PM 34.5822 -95.7817 359° North 445 512 35,000  Level Fort Worth Center
Thu 11:58:31 PM 34.7072 -95.7817 360° North 445 512 35,000 -500 Level Fort Worth Center
Thu 11:59:31 PM 34.8261 -95.7819 360° North 439 505 34,000 -500 Descending Fort Worth Center
Fri 12:00:31 AM 34.9306 -95.7850 359° North 426 490 34,000 -650 Level Fort Worth Center
Fri 12:01:31 AM 35.0369 -95.7831 North 397 457 32,700 500 Descending Fort Worth Center
Fri 12:02:31 AM 35.1494 -95.7833 360° North 391 450 35,000 1,150 Climbing Fort Worth Center
Fri 12:03:31 AM 35.2725 -95.7836 360° North 410 472 35,000 -7,663 Level Fort Worth Center
Fri 12:05:17 AM 35.4703 -95.7842 360° North 396 456 13,800 -8,379 Descending Kansas City Center
Fri 12:06:20 AM 35.5619 -95.7847 360° North 337 388 11,400 -2,170 Descending Kansas City Center
Fri 12:06:51 AM 35.6075 -95.7878 357° North 269 310 10,400 -1,700 Descending Kansas City Center
Fri 12:07:20 AM 35.6372 -95.7842 North 285 328 9,700 -1,475 Descending Kansas City Center
Fri 12:07:52 AM 35.6767 -95.7864 357° North 231 266 8,900 -1,355 Descending Kansas City Center
Fri 12:08:22 AM 35.7025 -95.7867 359° North 248 285 8,300 -1,180 Descending Kansas City Center
Fri 12:08:53 AM 35.7394 -95.7861 North 221 254 7,700 -984 Descending Kansas City Center
Fri 12:09:23 AM 35.7644 -95.7856 North 228 262 7,300 -900 Descending Kansas City Center
Fri 12:09:53 AM 35.8047 -95.7878 357° North 230 265 6,800 -885 Descending Kansas City Center
Fri 12:10:24 AM 35.8319 -95.7858 North 235 270 6,400 -900 Descending Kansas City Center
Fri 12:10:53 AM 35.8719 -95.7894 356° North 249 287 5,900 -915 Descending Kansas City Center
Fri 12:11:23 AM 35.9017 -95.7856 North 244 281 5,500 -984 Descending Kansas City Center
Fri 12:11:54 AM 35.9475 -95.7872 358° North 251 289 4,900 -885 Descending Kansas City Center
Fri 12:12:24 AM 35.9722 -95.7867 North 250 288 4,600 -871 Descending Kansas City Center
Fri 12:12:56 AM 36.0189 -95.7881 359° North 257 296 4,000 -952 Descending Kansas City Center
Fri 12:13:27 AM 36.0450 -95.7869 North 257 296 3,600 -931 Descending Kansas City Center
Fri 12:13:54 AM 36.0881 -95.7894 357° North 250 288 3,100 -900 Descending Kansas City Center
Fri 12:14:27 AM 36.1125 -95.7875 North 251 289 2,700 -581 Descending Kansas City Center
Fri 12:14:56 AM 36.1469 -95.7894 357° North 202 232 2,500 -203 Descending Kansas City Center
Fri 12:15:26 AM 36.1775 -95.7922 356° North 217 250 2,500 -295 Level Kansas City Center
Fri 12:15:57 AM 36.1881 -95.8047 316° Northwest 138 159 2,200 -1,031 Descending Kansas City Center
Fri 12:16:30 AM 36.1969 -95.8289 295° West 162 186 1,400 -1,082 Descending Kansas City Center
Fri 12:16:58 AM 36.1961 -95.8478 267° West 125 144 1,100 -689 Descending Kansas City Center
Fri 12:17:31 AM 36.1956 -95.8753 269° West 143 165 700 -727 Descending Kansas City Center
Fri 12:19:00 AM 36.1833 -95.8833 310° West  Level FlightAware Approximate

Login

Don't have an account? Register now (free) for customized features, flight alerts, and more!